sensor_id;sensor_type;location;lat;lon;timestamp;P1;durP1;ratioP1;P2;durP2;ratioP2
55776;SDS011;54079;44.540;18.784;2023-04-02T00:04:58;1.63;;;0.90;;
55776;SDS011;54079;44.540;18.784;2023-04-02T00:07:46;3.60;;;0.63;;
55776;SDS011;54079;44.540;18.784;2023-04-02T00:10:27;1.48;;;0.85;;
55776;SDS011;54079;44.540;18.784;2023-04-02T00:15:36;2.70;;;0.80;;
55776;SDS011;54079;44.540;18.784;2023-04-02T00:18:04;3.03;;;1.50;;
55776;SDS011;54079;44.540;18.784;2023-04-02T00:20:32;3.08;;;0.98;;
55776;SDS011;54079;44.540;18.784;2023-04-02T00:23:03;6.35;;;1.77;;
55776;SDS011;54079;44.540;18.784;2023-04-02T00:25:37;2.67;;;1.05;;
55776;SDS011;54079;44.540;18.784;2023-04-02T00:28:25;2.20;;;0.77;;
55776;SDS011;54079;44.540;18.784;2023-04-02T00:30:55;4.93;;;1.42;;
55776;SDS011;54079;44.540;18.784;2023-04-02T00:33:26;1.77;;;1.00;;
55776;SDS011;54079;44.540;18.784;2023-04-02T00:35:54;3.08;;;1.45;;
55776;SDS011;54079;44.540;18.784;2023-04-02T00:38:24;2.97;;;1.30;;
55776;SDS011;54079;44.540;18.784;2023-04-02T00:40:55;1.30;;;0.68;;
55776;SDS011;54079;44.540;18.784;2023-04-02T00:43:23;2.92;;;1.10;;
55776;SDS011;54079;44.540;18.784;2023-04-02T00:45:59;3.20;;;1.50;;
55776;SDS011;54079;44.540;18.784;2023-04-02T00:51:00;3.60;;;0.88;;
55776;SDS011;54079;44.540;18.784;2023-04-02T00:53:53;2.28;;;1.17;;
55776;SDS011;54079;44.540;18.784;2023-04-02T00:56:23;3.47;;;0.75;;
55776;SDS011;54079;44.540;18.784;2023-04-02T00:58:58;2.50;;;1.17;;
55776;SDS011;54079;44.540;18.784;2023-04-02T01:01:26;2.58;;;0.82;;
55776;SDS011;54079;44.540;18.784;2023-04-02T01:03:55;1.55;;;0.90;;
55776;SDS011;54079;44.540;18.784;2023-04-02T01:06:29;3.85;;;1.40;;
55776;SDS011;54079;44.540;18.784;2023-04-02T01:12:09;2.90;;;1.27;;
55776;SDS011;54079;44.540;18.784;2023-04-02T01:25:39;2.75;;;1.05;;
55776;SDS011;54079;44.540;18.784;2023-04-02T01:31:11;2.57;;;0.87;;
55776;SDS011;54079;44.540;18.784;2023-04-02T01:33:40;3.70;;;0.95;;
55776;SDS011;54079;44.540;18.784;2023-04-02T01:38:45;3.10;;;0.60;;
55776;SDS011;54079;44.540;18.784;2023-04-02T01:41:26;2.95;;;1.17;;
55776;SDS011;54079;44.540;18.784;2023-04-02T01:44:10;3.40;;;0.98;;
55776;SDS011;54079;44.540;18.784;2023-04-02T01:46:46;2.55;;;1.15;;
55776;SDS011;54079;44.540;18.784;2023-04-02T01:49:14;3.90;;;0.88;;
55776;SDS011;54079;44.540;18.784;2023-04-02T01:51:44;4.90;;;1.35;;
55776;SDS011;54079;44.540;18.784;2023-04-02T01:54:14;2.63;;;1.00;;
55776;SDS011;54079;44.540;18.784;2023-04-02T01:56:42;2.80;;;1.00;;
55776;SDS011;54079;44.540;18.784;2023-04-02T01:59:11;1.95;;;1.45;;
55776;SDS011;54079;44.540;18.784;2023-04-02T02:01:56;6.72;;;1.10;;
55776;SDS011;54079;44.540;18.784;2023-04-02T02:04:30;1.15;;;0.77;;
55776;SDS011;54079;44.540;18.784;2023-04-02T02:06:57;2.35;;;0.82;;
55776;SDS011;54079;44.540;18.784;2023-04-02T02:09:28;3.58;;;1.17;;
55776;SDS011;54079;44.540;18.784;2023-04-02T02:11:58;2.20;;;0.70;;
55776;SDS011;54079;44.540;18.784;2023-04-02T02:14:27;3.38;;;0.95;;
55776;SDS011;54079;44.540;18.784;2023-04-02T02:16:55;1.92;;;0.88;;
55776;SDS011;54079;44.540;18.784;2023-04-02T02:19:31;3.05;;;0.95;;
55776;SDS011;54079;44.540;18.784;2023-04-02T02:22:11;6.20;;;1.83;;
55776;SDS011;54079;44.540;18.784;2023-04-02T02:25:24;3.25;;;1.00;;
55776;SDS011;54079;44.540;18.784;2023-04-02T02:27:57;4.43;;;1.75;;
55776;SDS011;54079;44.540;18.784;2023-04-02T02:33:30;4.95;;;1.40;;
55776;SDS011;54079;44.540;18.784;2023-04-02T02:36:25;4.10;;;1.13;;
55776;SDS011;54079;44.540;18.784;2023-04-02T02:41:53;3.22;;;1.55;;
55776;SDS011;54079;44.540;18.784;2023-04-02T02:44:35;5.38;;;2.40;;
55776;SDS011;54079;44.540;18.784;2023-04-02T02:47:09;4.65;;;2.50;;
55776;SDS011;54079;44.540;18.784;2023-04-02T02:49:56;2.60;;;1.50;;
55776;SDS011;54079;44.540;18.784;2023-04-02T02:52:25;3.72;;;1.90;;
55776;SDS011;54079;44.540;18.784;2023-04-02T02:57:54;6.15;;;2.15;;
55776;SDS011;54079;44.540;18.784;2023-04-02T03:00:24;7.18;;;4.03;;
55776;SDS011;54079;44.540;18.784;2023-04-02T03:02:51;9.07;;;4.68;;
55776;SDS011;54079;44.540;18.784;2023-04-02T03:05:20;5.85;;;2.55;;
55776;SDS011;54079;44.540;18.784;2023-04-02T03:07:49;3.00;;;2.03;;
55776;SDS011;54079;44.540;18.784;2023-04-02T03:10:38;4.38;;;1.60;;
55776;SDS011;54079;44.540;18.784;2023-04-02T03:15:59;5.40;;;2.03;;
55776;SDS011;54079;44.540;18.784;2023-04-02T03:18:31;7.25;;;3.30;;
55776;SDS011;54079;44.540;18.784;2023-04-02T03:23:41;3.92;;;2.25;;
55776;SDS011;54079;44.540;18.784;2023-04-02T03:26:24;3.78;;;2.17;;
55776;SDS011;54079;44.540;18.784;2023-04-02T03:29:09;7.10;;;3.60;;
55776;SDS011;54079;44.540;18.784;2023-04-02T03:31:40;4.55;;;2.80;;
55776;SDS011;54079;44.540;18.784;2023-04-02T03:34:21;4.55;;;2.35;;
55776;SDS011;54079;44.540;18.784;2023-04-02T03:42:04;3.80;;;1.08;;
55776;SDS011;54079;44.540;18.784;2023-04-02T03:45:08;4.93;;;1.85;;
55776;SDS011;54079;44.540;18.784;2023-04-02T03:47:48;2.88;;;1.65;;
55776;SDS011;54079;44.540;18.784;2023-04-02T03:50:20;3.05;;;1.80;;
55776;SDS011;54079;44.540;18.784;2023-04-02T03:53:04;5.50;;;3.17;;
55776;SDS011;54079;44.540;18.784;2023-04-02T03:55:32;2.40;;;1.48;;
55776;SDS011;54079;44.540;18.784;2023-04-02T04:03:41;4.00;;;2.00;;
55776;SDS011;54079;44.540;18.784;2023-04-02T04:06:31;6.65;;;2.53;;
55776;SDS011;54079;44.540;18.784;2023-04-02T04:11:49;2.60;;;1.08;;
55776;SDS011;54079;44.540;18.784;2023-04-02T04:14:20;4.07;;;2.35;;
55776;SDS011;54079;44.540;18.784;2023-04-02T04:16:53;7.20;;;4.05;;
55776;SDS011;54079;44.540;18.784;2023-04-02T04:19:30;10.73;;;5.53;;
55776;SDS011;54079;44.540;18.784;2023-04-02T04:22:08;4.47;;;1.80;;
55776;SDS011;54079;44.540;18.784;2023-04-02T04:24:34;2.13;;;1.17;;
55776;SDS011;54079;44.540;18.784;2023-04-02T04:30:22;3.58;;;1.40;;
55776;SDS011;54079;44.540;18.784;2023-04-02T04:33:04;3.40;;;1.85;;
55776;SDS011;54079;44.540;18.784;2023-04-02T04:35:59;2.83;;;1.40;;
55776;SDS011;54079;44.540;18.784;2023-04-02T04:38:31;3.83;;;1.85;;
55776;SDS011;54079;44.540;18.784;2023-04-02T04:41:03;4.13;;;2.50;;
55776;SDS011;54079;44.540;18.784;2023-04-02T04:43:40;3.25;;;2.00;;
55776;SDS011;54079;44.540;18.784;2023-04-02T04:46:19;2.42;;;1.35;;
55776;SDS011;54079;44.540;18.784;2023-04-02T04:51:47;3.00;;;0.65;;
55776;SDS011;54079;44.540;18.784;2023-04-02T04:54:16;1.47;;;0.70;;
55776;SDS011;54079;44.540;18.784;2023-04-02T04:56:46;2.30;;;1.48;;
55776;SDS011;54079;44.540;18.784;2023-04-02T05:04:39;2.03;;;1.00;;
55776;SDS011;54079;44.540;18.784;2023-04-02T05:07:12;4.13;;;1.52;;
55776;SDS011;54079;44.540;18.784;2023-04-02T05:09:42;4.78;;;2.47;;
55776;SDS011;54079;44.540;18.784;2023-04-02T05:12:17;5.55;;;3.75;;
55776;SDS011;54079;44.540;18.784;2023-04-02T05:20:39;6.70;;;4.13;;
55776;SDS011;54079;44.540;18.784;2023-04-02T05:23:27;7.07;;;4.28;;
55776;SDS011;54079;44.540;18.784;2023-04-02T05:26:37;7.75;;;4.00;;
55776;SDS011;54079;44.540;18.784;2023-04-02T05:31:21;3.13;;;1.92;;
55776;SDS011;54079;44.540;18.784;2023-04-02T05:33:55;5.55;;;3.33;;
55776;SDS011;54079;44.540;18.784;2023-04-02T05:36:24;9.02;;;5.78;;
55776;SDS011;54079;44.540;18.784;2023-04-02T05:43:54;4.15;;;2.60;;
55776;SDS011;54079;44.540;18.784;2023-04-02T05:46:50;5.65;;;3.15;;
55776;SDS011;54079;44.540;18.784;2023-04-02T05:49:33;5.55;;;4.25;;
55776;SDS011;54079;44.540;18.784;2023-04-02T05:52:22;3.88;;;2.65;;
55776;SDS011;54079;44.540;18.784;2023-04-02T05:54:52;4.93;;;3.22;;
55776;SDS011;54079;44.540;18.784;2023-04-02T05:57:31;5.20;;;3.03;;
55776;SDS011;54079;44.540;18.784;2023-04-02T06:00:03;3.58;;;1.80;;
55776;SDS011;54079;44.540;18.784;2023-04-02T06:02:36;2.95;;;1.40;;
55776;SDS011;54079;44.540;18.784;2023-04-02T06:05:11;4.65;;;1.92;;
55776;SDS011;54079;44.540;18.784;2023-04-02T06:07:51;2.83;;;1.55;;
55776;SDS011;54079;44.540;18.784;2023-04-02T06:10:29;4.63;;;2.90;;
55776;SDS011;54079;44.540;18.784;2023-04-02T06:12:59;7.03;;;3.60;;
55776;SDS011;54079;44.540;18.784;2023-04-02T06:15:34;5.63;;;3.60;;
55776;SDS011;54079;44.540;18.784;2023-04-02T06:18:05;2.95;;;2.17;;
55776;SDS011;54079;44.540;18.784;2023-04-02T06:20:33;3.55;;;2.78;;
55776;SDS011;54079;44.540;18.784;2023-04-02T06:23:05;4.40;;;3.47;;
55776;SDS011;54079;44.540;18.784;2023-04-02T06:28:14;4.78;;;4.00;;
55776;SDS011;54079;44.540;18.784;2023-04-02T06:30:44;13.00;;;10.45;;
55776;SDS011;54079;44.540;18.784;2023-04-02T06:33:11;8.88;;;7.47;;
55776;SDS011;54079;44.540;18.784;2023-04-02T06:35:41;9.68;;;8.00;;
55776;SDS011;54079;44.540;18.784;2023-04-02T06:38:20;7.93;;;7.13;;
55776;SDS011;54079;44.540;18.784;2023-04-02T06:40:57;7.05;;;5.90;;
55776;SDS011;54079;44.540;18.784;2023-04-02T06:43:34;9.88;;;8.88;;
55776;SDS011;54079;44.540;18.784;2023-04-02T06:46:12;10.77;;;9.48;;
55776;SDS011;54079;44.540;18.784;2023-04-02T06:48:47;5.68;;;5.13;;
55776;SDS011;54079;44.540;18.784;2023-04-02T06:51:17;15.05;;;13.55;;
55776;SDS011;54079;44.540;18.784;2023-04-02T06:53:47;11.45;;;10.15;;
55776;SDS011;54079;44.540;18.784;2023-04-02T06:58:52;12.27;;;11.02;;
55776;SDS011;54079;44.540;18.784;2023-04-02T07:01:20;12.15;;;10.77;;
55776;SDS011;54079;44.540;18.784;2023-04-02T07:03:51;12.15;;;9.73;;
55776;SDS011;54079;44.540;18.784;2023-04-02T07:06:18;12.90;;;11.27;;
55776;SDS011;54079;44.540;18.784;2023-04-02T07:08:46;14.02;;;12.60;;
55776;SDS011;54079;44.540;18.784;2023-04-02T07:11:13;14.75;;;12.98;;
55776;SDS011;54079;44.540;18.784;2023-04-02T07:13:41;13.48;;;12.15;;
55776;SDS011;54079;44.540;18.784;2023-04-02T07:16:41;10.82;;;9.65;;
55776;SDS011;54079;44.540;18.784;2023-04-02T07:19:00;8.05;;;7.05;;
55776;SDS011;54079;44.540;18.784;2023-04-02T07:21:28;8.52;;;7.65;;
55776;SDS011;54079;44.540;18.784;2023-04-02T07:23:55;14.68;;;13.18;;
55776;SDS011;54079;44.540;18.784;2023-04-02T07:26:22;12.93;;;11.20;;
55776;SDS011;54079;44.540;18.784;2023-04-02T07:28:50;14.88;;;13.32;;
55776;SDS011;54079;44.540;18.784;2023-04-02T07:31:23;11.90;;;10.80;;
55776;SDS011;54079;44.540;18.784;2023-04-02T07:33:51;14.13;;;12.68;;
55776;SDS011;54079;44.540;18.784;2023-04-02T07:36:20;10.82;;;9.73;;
55776;SDS011;54079;44.540;18.784;2023-04-02T07:38:48;15.80;;;14.40;;
55776;SDS011;54079;44.540;18.784;2023-04-02T07:41:14;17.92;;;16.10;;
55776;SDS011;54079;44.540;18.784;2023-04-02T07:43:41;13.82;;;12.52;;
55776;SDS011;54079;44.540;18.784;2023-04-02T07:46:08;11.75;;;10.15;;
55776;SDS011;54079;44.540;18.784;2023-04-02T07:48:34;13.50;;;11.27;;
55776;SDS011;54079;44.540;18.784;2023-04-02T07:51:00;11.43;;;10.30;;
55776;SDS011;54079;44.540;18.784;2023-04-02T07:53:31;15.00;;;13.60;;
55776;SDS011;54079;44.540;18.784;2023-04-02T07:55:59;11.23;;;10.07;;
55776;SDS011;54079;44.540;18.784;2023-04-02T07:58:27;10.32;;;9.32;;
55776;SDS011;54079;44.540;18.784;2023-04-02T08:00:53;8.50;;;7.75;;
55776;SDS011;54079;44.540;18.784;2023-04-02T08:03:20;5.85;;;5.05;;
55776;SDS011;54079;44.540;18.784;2023-04-02T08:05:51;4.25;;;3.95;;
55776;SDS011;54079;44.540;18.784;2023-04-02T08:10:44;3.25;;;2.95;;
55776;SDS011;54079;44.540;18.784;2023-04-02T08:13:10;5.57;;;5.07;;
55776;SDS011;54079;44.540;18.784;2023-04-02T08:15:36;5.05;;;4.65;;
55776;SDS011;54079;44.540;18.784;2023-04-02T08:18:02;3.72;;;3.42;;
55776;SDS011;54079;44.540;18.784;2023-04-02T08:20:28;3.33;;;2.97;;
55776;SDS011;54079;44.540;18.784;2023-04-02T08:22:54;3.03;;;2.83;;
55776;SDS011;54079;44.540;18.784;2023-04-02T08:25:20;6.78;;;6.07;;
55776;SDS011;54079;44.540;18.784;2023-04-02T08:27:46;3.08;;;2.83;;
55776;SDS011;54079;44.540;18.784;2023-04-02T08:30:14;4.38;;;3.55;;
55776;SDS011;54079;44.540;18.784;2023-04-02T08:32:41;6.03;;;5.50;;
55776;SDS011;54079;44.540;18.784;2023-04-02T08:35:11;3.40;;;2.53;;
55776;SDS011;54079;44.540;18.784;2023-04-02T08:37:39;2.78;;;2.50;;
55776;SDS011;54079;44.540;18.784;2023-04-02T08:40:06;5.43;;;5.03;;
55776;SDS011;54079;44.540;18.784;2023-04-02T08:47:56;2.80;;;2.60;;
55776;SDS011;54079;44.540;18.784;2023-04-02T08:50:27;3.47;;;3.13;;
55776;SDS011;54079;44.540;18.784;2023-04-02T08:52:59;4.80;;;4.40;;
55776;SDS011;54079;44.540;18.784;2023-04-02T08:58:46;2.60;;;2.40;;
55776;SDS011;54079;44.540;18.784;2023-04-02T09:00:46;4.53;;;4.10;;
55776;SDS011;54079;44.540;18.784;2023-04-02T09:03:17;4.05;;;3.65;;
55776;SDS011;54079;44.540;18.784;2023-04-02T09:06:04;5.60;;;5.05;;
55776;SDS011;54079;44.540;18.784;2023-04-02T09:08:34;6.00;;;5.45;;
55776;SDS011;54079;44.540;18.784;2023-04-02T09:11:03;3.78;;;3.38;;
55776;SDS011;54079;44.540;18.784;2023-04-02T09:13:42;3.35;;;3.05;;
55776;SDS011;54079;44.540;18.784;2023-04-02T09:16:16;9.38;;;8.50;;
55776;SDS011;54079;44.540;18.784;2023-04-02T09:18:46;4.10;;;3.80;;
55776;SDS011;54079;44.540;18.784;2023-04-02T09:23:47;6.63;;;5.85;;
55776;SDS011;54079;44.540;18.784;2023-04-02T09:28:53;6.97;;;6.28;;
55776;SDS011;54079;44.540;18.784;2023-04-02T09:31:48;3.78;;;3.47;;
55776;SDS011;54079;44.540;18.784;2023-04-02T09:34:25;3.00;;;2.70;;
55776;SDS011;54079;44.540;18.784;2023-04-02T09:36:53;4.28;;;2.53;;
55776;SDS011;54079;44.540;18.784;2023-04-02T09:39:24;2.70;;;2.50;;
55776;SDS011;54079;44.540;18.784;2023-04-02T09:41:50;5.13;;;4.35;;
55776;SDS011;54079;44.540;18.784;2023-04-02T09:44:26;2.75;;;2.55;;
55776;SDS011;54079;44.540;18.784;2023-04-02T09:49:35;2.00;;;1.90;;
55776;SDS011;54079;44.540;18.784;2023-04-02T09:57:42;3.67;;;2.53;;
55776;SDS011;54079;44.540;18.784;2023-04-02T10:02:41;1.58;;;1.13;;
55776;SDS011;54079;44.540;18.784;2023-04-02T10:05:18;2.00;;;1.63;;
55776;SDS011;54079;44.540;18.784;2023-04-02T10:07:50;2.22;;;2.03;;
55776;SDS011;54079;44.540;18.784;2023-04-02T10:10:19;1.42;;;1.13;;
55776;SDS011;54079;44.540;18.784;2023-04-02T10:13:07;4.55;;;4.05;;
55776;SDS011;54079;44.540;18.784;2023-04-02T10:21:03;5.80;;;5.28;;
55776;SDS011;54079;44.540;18.784;2023-04-02T10:23:30;4.72;;;4.28;;
55776;SDS011;54079;44.540;18.784;2023-04-02T10:26:02;1.30;;;0.88;;
55776;SDS011;54079;44.540;18.784;2023-04-02T10:31:50;2.67;;;2.47;;
55776;SDS011;54079;44.540;18.784;2023-04-02T10:34:29;2.72;;;1.88;;
55776;SDS011;54079;44.540;18.784;2023-04-02T10:46:05;7.32;;;6.63;;
55776;SDS011;54079;44.540;18.784;2023-04-02T10:51:31;7.57;;;6.40;;
55776;SDS011;54079;44.540;18.784;2023-04-02T10:57:07;9.05;;;6.60;;
55776;SDS011;54079;44.540;18.784;2023-04-02T10:59:36;4.10;;;3.60;;
55776;SDS011;54079;44.540;18.784;2023-04-02T11:02:16;7.15;;;5.97;;
55776;SDS011;54079;44.540;18.784;2023-04-02T11:05:19;4.93;;;4.43;;
55776;SDS011;54079;44.540;18.784;2023-04-02T11:08:25;7.00;;;4.25;;
55776;SDS011;54079;44.540;18.784;2023-04-02T11:10:58;9.45;;;7.55;;
55776;SDS011;54079;44.540;18.784;2023-04-02T11:16:33;3.65;;;3.17;;
55776;SDS011;54079;44.540;18.784;2023-04-02T11:29:37;7.38;;;5.43;;
55776;SDS011;54079;44.540;18.784;2023-04-02T11:32:22;4.55;;;2.67;;
55776;SDS011;54079;44.540;18.784;2023-04-02T11:37:34;9.77;;;8.63;;
55776;SDS011;54079;44.540;18.784;2023-04-02T11:42:41;3.60;;;2.80;;
55776;SDS011;54079;44.540;18.784;2023-04-02T11:48:46;1.23;;;0.75;;
55776;SDS011;54079;44.540;18.784;2023-04-02T11:50:42;9.95;;;8.85;;
55776;SDS011;54079;44.540;18.784;2023-04-02T11:55:35;6.47;;;3.15;;
55776;SDS011;54079;44.540;18.784;2023-04-02T12:11:55;1.00;;;0.90;;
55776;SDS011;54079;44.540;18.784;2023-04-02T12:14:29;1.20;;;0.68;;
55776;SDS011;54079;44.540;18.784;2023-04-02T12:16:56;0.50;;;0.30;;
55776;SDS011;54079;44.540;18.784;2023-04-02T12:19:23;1.48;;;0.88;;
55776;SDS011;54079;44.540;18.784;2023-04-02T12:21:51;1.33;;;0.60;;
55776;SDS011;54079;44.540;18.784;2023-04-02T12:24:21;1.25;;;0.38;;
55776;SDS011;54079;44.540;18.784;2023-04-02T12:27:05;1.00;;;0.50;;
55776;SDS011;54079;44.540;18.784;2023-04-02T12:29:32;0.88;;;0.52;;
55776;SDS011;54079;44.540;18.784;2023-04-02T12:32:00;0.60;;;0.50;;
55776;SDS011;54079;44.540;18.784;2023-04-02T12:34:28;1.13;;;0.90;;
55776;SDS011;54079;44.540;18.784;2023-04-02T12:36:58;0.80;;;0.57;;
55776;SDS011;54079;44.540;18.784;2023-04-02T12:39:29;0.30;;;0.20;;
55776;SDS011;54079;44.540;18.784;2023-04-02T12:41:56;0.40;;;0.38;;
55776;SDS011;54079;44.540;18.784;2023-04-02T12:44:24;0.50;;;0.50;;
55776;SDS011;54079;44.540;18.784;2023-04-02T12:46:54;1.25;;;0.60;;
55776;SDS011;54079;44.540;18.784;2023-04-02T12:51:56;0.95;;;0.43;;
55776;SDS011;54079;44.540;18.784;2023-04-02T12:54:25;2.65;;;2.00;;
55776;SDS011;54079;44.540;18.784;2023-04-02T12:56:51;3.70;;;3.35;;
55776;SDS011;54079;44.540;18.784;2023-04-02T12:59:28;10.48;;;8.27;;
55776;SDS011;54079;44.540;18.784;2023-04-02T13:01:57;8.57;;;6.80;;
55776;SDS011;54079;44.540;18.784;2023-04-02T13:04:25;5.40;;;3.95;;
55776;SDS011;54079;44.540;18.784;2023-04-02T13:06:51;3.40;;;2.22;;
55776;SDS011;54079;44.540;18.784;2023-04-02T13:09:25;3.67;;;2.60;;
55776;SDS011;54079;44.540;18.784;2023-04-02T13:14:56;5.85;;;4.35;;
55776;SDS011;54079;44.540;18.784;2023-04-02T13:18:25;5.28;;;4.25;;
55776;SDS011;54079;44.540;18.784;2023-04-02T13:20:38;4.63;;;3.08;;
55776;SDS011;54079;44.540;18.784;2023-04-02T13:31:44;3.38;;;2.70;;
55776;SDS011;54079;44.540;18.784;2023-04-02T13:34:10;2.97;;;2.05;;
55776;SDS011;54079;44.540;18.784;2023-04-02T13:36:36;6.50;;;4.72;;
55776;SDS011;54079;44.540;18.784;2023-04-02T13:39:02;16.50;;;13.90;;
55776;SDS011;54079;44.540;18.784;2023-04-02T13:41:30;5.90;;;5.05;;
55776;SDS011;54079;44.540;18.784;2023-04-02T13:43:59;8.32;;;6.60;;
55776;SDS011;54079;44.540;18.784;2023-04-02T13:46:27;3.50;;;2.17;;
55776;SDS011;54079;44.540;18.784;2023-04-02T13:48:55;4.78;;;2.70;;
55776;SDS011;54079;44.540;18.784;2023-04-02T13:51:35;4.15;;;2.17;;
55776;SDS011;54079;44.540;18.784;2023-04-02T13:54:05;2.65;;;2.10;;
55776;SDS011;54079;44.540;18.784;2023-04-02T13:56:38;9.95;;;8.68;;
55776;SDS011;54079;44.540;18.784;2023-04-02T13:59:04;13.55;;;11.73;;
55776;SDS011;54079;44.540;18.784;2023-04-02T14:01:31;3.67;;;3.08;;
55776;SDS011;54079;44.540;18.784;2023-04-02T14:03:57;8.40;;;7.25;;
55776;SDS011;54079;44.540;18.784;2023-04-02T14:06:42;3.80;;;3.40;;
55776;SDS011;54079;44.540;18.784;2023-04-02T14:09:34;4.53;;;4.07;;
55776;SDS011;54079;44.540;18.784;2023-04-02T14:20:46;6.22;;;5.18;;
55776;SDS011;54079;44.540;18.784;2023-04-02T14:32:13;9.60;;;6.72;;
55776;SDS011;54079;44.540;18.784;2023-04-02T14:35:23;7.35;;;5.78;;
55776;SDS011;54079;44.540;18.784;2023-04-02T14:38:12;7.10;;;4.30;;
55776;SDS011;54079;44.540;18.784;2023-04-02T14:46:17;4.32;;;3.28;;
55776;SDS011;54079;44.540;18.784;2023-04-02T14:51:39;5.93;;;4.25;;
55776;SDS011;54079;44.540;18.784;2023-04-02T14:54:19;15.98;;;12.63;;
55776;SDS011;54079;44.540;18.784;2023-04-02T14:57:18;10.50;;;7.95;;
55776;SDS011;54079;44.540;18.784;2023-04-02T15:07:57;7.47;;;6.03;;
55776;SDS011;54079;44.540;18.784;2023-04-02T15:13:32;8.90;;;6.55;;
55776;SDS011;54079;44.540;18.784;2023-04-02T15:16:21;9.57;;;7.72;;
55776;SDS011;54079;44.540;18.784;2023-04-02T15:18:56;10.65;;;8.35;;
55776;SDS011;54079;44.540;18.784;2023-04-02T15:24:40;9.57;;;7.40;;
55776;SDS011;54079;44.540;18.784;2023-04-02T15:32:47;7.50;;;5.50;;
55776;SDS011;54079;44.540;18.784;2023-04-02T15:55:07;10.80;;;7.50;;
55776;SDS011;54079;44.540;18.784;2023-04-02T16:00:18;12.40;;;9.40;;
55776;SDS011;54079;44.540;18.784;2023-04-02T16:10:55;10.07;;;6.63;;
55776;SDS011;54079;44.540;18.784;2023-04-02T16:13:34;4.88;;;4.10;;
55776;SDS011;54079;44.540;18.784;2023-04-02T16:21:19;10.30;;;7.63;;
55776;SDS011;54079;44.540;18.784;2023-04-02T16:23:46;8.93;;;6.13;;
55776;SDS011;54079;44.540;18.784;2023-04-02T16:26:20;5.68;;;4.50;;
55776;SDS011;54079;44.540;18.784;2023-04-02T16:34:54;12.88;;;9.80;;
55776;SDS011;54079;44.540;18.784;2023-04-02T16:42:57;9.10;;;6.18;;
55776;SDS011;54079;44.540;18.784;2023-04-02T16:45:57;7.55;;;5.60;;
55776;SDS011;54079;44.540;18.784;2023-04-02T16:56:44;14.50;;;9.88;;
55776;SDS011;54079;44.540;18.784;2023-04-02T17:09:57;12.77;;;8.65;;
55776;SDS011;54079;44.540;18.784;2023-04-02T17:12:46;12.77;;;9.43;;
55776;SDS011;54079;44.540;18.784;2023-04-02T17:15:36;11.48;;;7.13;;
55776;SDS011;54079;44.540;18.784;2023-04-02T17:18:11;9.10;;;6.38;;
55776;SDS011;54079;44.540;18.784;2023-04-02T17:20:44;7.40;;;5.35;;
55776;SDS011;54079;44.540;18.784;2023-04-02T17:23:14;10.15;;;7.03;;
55776;SDS011;54079;44.540;18.784;2023-04-02T17:25:45;14.85;;;9.73;;
55776;SDS011;54079;44.540;18.784;2023-04-02T17:28:25;9.77;;;6.40;;
55776;SDS011;54079;44.540;18.784;2023-04-02T17:31:00;8.20;;;6.18;;
55776;SDS011;54079;44.540;18.784;2023-04-02T17:33:31;9.85;;;7.68;;
55776;SDS011;54079;44.540;18.784;2023-04-02T17:41:39;9.45;;;6.40;;
55776;SDS011;54079;44.540;18.784;2023-04-02T18:03:29;4.75;;;2.83;;
55776;SDS011;54079;44.540;18.784;2023-04-02T18:06:36;4.93;;;2.72;;
55776;SDS011;54079;44.540;18.784;2023-04-02T18:12:22;5.18;;;3.75;;
55776;SDS011;54079;44.540;18.784;2023-04-02T18:17:16;5.20;;;3.28;;
55776;SDS011;54079;44.540;18.784;2023-04-02T18:22:22;2.03;;;1.25;;
55776;SDS011;54079;44.540;18.784;2023-04-02T18:38:33;0.80;;;0.70;;
55776;SDS011;54079;44.540;18.784;2023-04-02T18:46:29;4.35;;;1.70;;
55776;SDS011;54079;44.540;18.784;2023-04-02T18:52:13;3.72;;;1.70;;
55776;SDS011;54079;44.540;18.784;2023-04-02T18:54:42;3.65;;;3.08;;
55776;SDS011;54079;44.540;18.784;2023-04-02T18:57:21;4.53;;;2.28;;
55776;SDS011;54079;44.540;18.784;2023-04-02T19:00:04;4.25;;;2.42;;
55776;SDS011;54079;44.540;18.784;2023-04-02T19:03:06;2.47;;;1.83;;
55776;SDS011;54079;44.540;18.784;2023-04-02T19:10:52;1.30;;;1.05;;
55776;SDS011;54079;44.540;18.784;2023-04-02T19:13:23;2.03;;;1.60;;
55776;SDS011;54079;44.540;18.784;2023-04-02T19:16:36;3.28;;;1.52;;
55776;SDS011;54079;44.540;18.784;2023-04-02T19:24:11;2.70;;;2.38;;
55776;SDS011;54079;44.540;18.784;2023-04-02T19:29:37;1.77;;;1.38;;
55776;SDS011;54079;44.540;18.784;2023-04-02T19:41:07;8.00;;;4.03;;
55776;SDS011;54079;44.540;18.784;2023-04-02T19:43:45;5.45;;;3.55;;
55776;SDS011;54079;44.540;18.784;2023-04-02T19:46:12;6.25;;;4.22;;
55776;SDS011;54079;44.540;18.784;2023-04-02T19:48:46;6.47;;;5.13;;
55776;SDS011;54079;44.540;18.784;2023-04-02T19:51:27;5.60;;;4.40;;
55776;SDS011;54079;44.540;18.784;2023-04-02T19:53:53;6.85;;;4.55;;
55776;SDS011;54079;44.540;18.784;2023-04-02T19:56:19;7.72;;;5.85;;
55776;SDS011;54079;44.540;18.784;2023-04-02T19:58:46;10.45;;;7.30;;
55776;SDS011;54079;44.540;18.784;2023-04-02T20:01:12;7.80;;;6.30;;
55776;SDS011;54079;44.540;18.784;2023-04-02T20:03:38;10.18;;;6.55;;
55776;SDS011;54079;44.540;18.784;2023-04-02T20:06:03;6.53;;;5.30;;
55776;SDS011;54079;44.540;18.784;2023-04-02T20:08:29;13.52;;;7.97;;
55776;SDS011;54079;44.540;18.784;2023-04-02T20:10:56;13.02;;;8.85;;
55776;SDS011;54079;44.540;18.784;2023-04-02T20:13:25;11.25;;;8.80;;
55776;SDS011;54079;44.540;18.784;2023-04-02T20:15:51;11.10;;;7.95;;
55776;SDS011;54079;44.540;18.784;2023-04-02T20:18:17;18.20;;;13.00;;
55776;SDS011;54079;44.540;18.784;2023-04-02T20:20:47;15.15;;;12.50;;
55776;SDS011;54079;44.540;18.784;2023-04-02T20:23:14;18.48;;;14.20;;
55776;SDS011;54079;44.540;18.784;2023-04-02T20:25:44;15.95;;;12.15;;
55776;SDS011;54079;44.540;18.784;2023-04-02T20:28:20;19.35;;;14.23;;
55776;SDS011;54079;44.540;18.784;2023-04-02T20:30:48;18.38;;;12.98;;
55776;SDS011;54079;44.540;18.784;2023-04-02T20:33:22;16.15;;;13.00;;
55776;SDS011;54079;44.540;18.784;2023-04-02T20:35:49;12.23;;;10.18;;
55776;SDS011;54079;44.540;18.784;2023-04-02T20:38:16;12.25;;;9.20;;
55776;SDS011;54079;44.540;18.784;2023-04-02T20:40:42;13.35;;;10.90;;
55776;SDS011;54079;44.540;18.784;2023-04-02T20:43:10;14.73;;;10.70;;
55776;SDS011;54079;44.540;18.784;2023-04-02T20:45:37;13.45;;;10.02;;
55776;SDS011;54079;44.540;18.784;2023-04-02T20:48:03;15.63;;;11.98;;
55776;SDS011;54079;44.540;18.784;2023-04-02T20:50:29;12.52;;;10.13;;
55776;SDS011;54079;44.540;18.784;2023-04-02T20:52:58;11.15;;;7.65;;
55776;SDS011;54079;44.540;18.784;2023-04-02T20:55:25;13.05;;;9.93;;
55776;SDS011;54079;44.540;18.784;2023-04-02T20:57:51;13.20;;;9.93;;
55776;SDS011;54079;44.540;18.784;2023-04-02T21:00:17;12.40;;;8.48;;
55776;SDS011;54079;44.540;18.784;2023-04-02T21:02:43;13.30;;;10.20;;
55776;SDS011;54079;44.540;18.784;2023-04-02T21:05:09;8.20;;;6.60;;
55776;SDS011;54079;44.540;18.784;2023-04-02T21:07:35;12.30;;;9.30;;
55776;SDS011;54079;44.540;18.784;2023-04-02T21:10:01;11.60;;;8.70;;
55776;SDS011;54079;44.540;18.784;2023-04-02T21:12:27;13.38;;;9.27;;
55776;SDS011;54079;44.540;18.784;2023-04-02T21:14:53;12.18;;;8.77;;
55776;SDS011;54079;44.540;18.784;2023-04-02T21:17:22;11.93;;;8.98;;
55776;SDS011;54079;44.540;18.784;2023-04-02T21:19:48;12.70;;;8.13;;
55776;SDS011;54079;44.540;18.784;2023-04-02T21:22:14;10.38;;;7.68;;
55776;SDS011;54079;44.540;18.784;2023-04-02T21:24:41;11.55;;;9.10;;